Relevés horaires Matro (Suisse)


Relevés horaires à Matro - Samedi 03 Août 2019
Heure UTC1 Température [°C] Vent [km/h] Hum. [%] Pres.4 [hPa] Visi. [Km] Nébu. [octa] Préc.5 [mm] Cond.
2m. Res. Ros. Dir.2 Vit. Moy. Raf.3
23:00 9.3 6.1 1.9 NNO 24.1 -- 37.0 60 850(0.2/3h) -- -- -- --
22:00 9.7 6.3 1.8 NNO 27.8 -- 42.6 58 850(0.8/3h) -- -- -- --
21:00 10.0 6.5 1.9 NNO 31.5 -- 55.6 57 850(0.7/3h) -- -- -- --
20:00 10.3 6.4 1.7 NNO 38.9 -- 55.6 55 850(0.4/3h) -- -- -- --
19:00 10.8 7.1 1.5 NNO 38.9 -- 51.9 53 850(-0.3/3h) -- -- -- --
18:00 11.4 8.4 1.3 NO 29.6 -- 44.4 50 850(-0.3/3h) -- -- -- --
17:00 11.9 9.4 1.3 NO 24.1 -- 35.2 48 850(-0.5/3h) -- -- -- --
16:00 12.1 9.8 1.1 ONO 22.2 -- 37.0 47 850(-0.4/3h) -- -- -- --
15:00 11.7 9.2 1.1 NNO 24.1 -- 35.2 48 850(-0.3/3h) -- -- -- --
14:00 11.6 9.7 0.3 NNO 16.7 -- 33.3 46 850(0.2/3h) -- -- -- --
13:00 11.2 9.2 -0.1 NO 16.7 -- 35.2 46 850(0.5/3h) -- -- -- --
12:00 11.6 9.7 0.2 NNO 16.7 -- 42.6 45 850(0.5/3h) -- -- -- --
11:00 11.3 10 1.3 NO 11.1 -- 42.6 50 850(0.5/3h) -- -- -- --
10:00 10.5 8.6 0.4 NNO 14.8 -- 29.6 50 850(0.5/3h) -- -- -- --
09:00 10.2 8 1.0 NO 16.7 -- 37.0 53 850(0.7/3h) -- -- -- --
08:00 9.7 7.6 0.7 NNO 14.8 -- 31.5 53 850(0.8/3h) -- -- -- --
07:00 9.4 6.4 0.2 NNO 22.2 -- 37.0 53 850(0.6/3h) -- -- -- --
06:00 9.1 5.9 0.3 NNO 24.1 -- 50.0 54 850(0.3/3h) -- -- -- --
05:00 8.8 4.8 0.1 NO 33.3 -- 46.3 54 850(0.0/3h) -- -- -- --
04:00 7.9 4.9 0.5 NO 18.5 -- 35.2 59 850(-0.2/3h) -- -- -- --
03:00 8.5 4.9 -0.1 NO 25.9 -- 50.0 55 850(-0.4/3h) -- -- -- --
02:00 8.5 5.1 -- NO 24.1 -- 40.7 -- 850(-0.4/3h) -- -- -- --
01:00 8.2 4.9 0.9 NO 22.2 -- 50.0 60 850(-0.3/3h) -- -- -- --
00:00 8.3 4.5 1.3 NO 27.8 -- 59.3 61 850(-0.2/3h) -- -- -- --

1 Coordinated Universal Time. Actuellement il est 20:00 locale et 18:00 UTC.

2 Le vent souffle depuis la direction indiquée vers la direction oposée.

3 Les rafales max. sont disponible 40 min après l'heure du relevé.

4 Pour les stations d'altitude (plus de 600m) le géopotentiel du niveau le plus proche de la pression obligatoire est indiqué.

5 Les stations disposant d'un diffuseur peuvent indiquer "trace". Cela signifie que des précipitations ont touchés le sol mais que la quantité est inférieure à 0.1 mm.

Copyright

Les données affichées sur cette page sont la propriété exclusive de Météo Suisse.

Récapitulatif de la journée
Température [°C] Vent [km/h] Ensoleillement4 [h] Precipitations totale5 [mm] Pression [Hpa]
Min1 Max.2 Moy.3 Max. Min Max.
7.9 12.4 0 59.3 9 h 36 min 0 850.0 850.0

1 Température minimale relevée entre 18:00 UTC la veille et 18:00 UTC le jour donné.

2 Température maximale relevée entre 06:00 UTC le jour donné et 06:00 UTC le lendemain.

3 Vent moyen de la journée basé sur les relevés horaires.

4 Ensoleillement en heures relevé entre 06:00 UTC la veille et 06:00 UTC le jour donné.

5 Précipitations totales tombées entre 06:00 UTC la jour donné et 06:00 UTC le lendemain.

Graphiques horaires